createdAt,value
2019-03-12T00:03:10.604Z,88.50
2019-03-12T00:08:16.165Z,88.90
2019-03-12T00:13:21.629Z,90.10
2019-03-12T00:18:28.624Z,88.90
2019-03-12T00:23:34.341Z,89.50
2019-03-12T00:28:40.210Z,89.30
2019-03-12T00:33:46.093Z,90.00
2019-03-12T00:38:51.706Z,90.00
2019-03-12T00:43:57.730Z,90.30
2019-03-12T00:49:03.298Z,90.60
2019-03-12T00:54:08.894Z,90.70
2019-03-12T00:59:14.639Z,90.90
2019-03-12T01:04:20.240Z,91.00
2019-03-12T01:09:25.853Z,91.10
2019-03-12T01:14:31.328Z,91.50
2019-03-12T01:19:36.828Z,90.80
2019-03-12T01:24:42.419Z,91.10
2019-03-12T01:29:47.999Z,91.50
2019-03-12T01:34:53.661Z,92.10
2019-03-12T01:39:59.325Z,93.30
2019-03-12T01:45:07.270Z,92.00
2019-03-12T01:50:12.882Z,92.70
2019-03-12T01:55:18.384Z,92.00
2019-03-12T02:00:23.910Z,91.70
2019-03-12T02:05:29.470Z,91.50
2019-03-12T02:10:34.877Z,91.10
2019-03-12T02:15:40.208Z,91.50
2019-03-12T02:20:45.851Z,91.40
2019-03-12T02:25:51.314Z,91.60
2019-03-12T02:30:56.972Z,91.80
2019-03-12T02:36:02.644Z,92.20
2019-03-12T02:41:08.332Z,93.30
2019-03-12T02:46:14.021Z,94.10
2019-03-12T02:51:19.685Z,94.70
2019-03-12T02:56:25.059Z,94.30
2019-03-12T03:01:30.774Z,94.40
2019-03-12T03:07:04.309Z,94.20
2019-03-12T03:12:09.861Z,94.30
2019-03-12T03:17:16.425Z,94.60
2019-03-12T03:22:22.046Z,94.20
2019-03-12T03:27:29.307Z,94.80
2019-03-12T03:32:34.527Z,94.70
2019-03-12T03:37:40.071Z,95.70
2019-03-12T03:42:45.614Z,96.20
2019-03-12T03:47:51.270Z,95.70
2019-03-12T03:52:56.675Z,95.70
2019-03-12T03:58:02.318Z,96.10
2019-03-12T04:03:08.017Z,96.20
2019-03-12T04:08:13.955Z,96.90
2019-03-12T04:13:19.718Z,98.10
2019-03-12T04:18:25.403Z,97.20
2019-03-12T04:23:30.974Z,97.10
2019-03-12T04:28:36.754Z,97.40
2019-03-12T04:34:14.744Z,97.10
2019-03-12T04:39:20.141Z,97.40
2019-03-12T04:44:25.576Z,97.20
2019-03-12T04:49:31.041Z,97.50
2019-03-12T04:54:36.627Z,98.40
2019-03-12T04:59:42.182Z,97.80
2019-03-12T05:04:47.843Z,98.10
2019-03-12T05:09:53.398Z,98.80
2019-03-12T05:14:59.059Z,98.40
2019-03-12T05:20:04.935Z,98.90
2019-03-12T05:25:11.227Z,99.10
2019-03-12T05:30:17.218Z,99.90
2019-03-12T05:35:22.754Z,99.30
2019-03-12T05:40:28.442Z,99.30
2019-03-12T05:45:34.008Z,99.90
2019-03-12T05:50:39.371Z,99.90
2019-03-12T05:55:44.818Z,99.90
2019-03-12T06:00:50.394Z,99.90
2019-03-12T06:05:55.950Z,99.90
2019-03-12T06:11:01.299Z,99.90
2019-03-12T06:16:06.878Z,99.90
2019-03-12T06:21:12.358Z,99.90
2019-03-12T06:26:17.885Z,99.90
2019-03-12T06:31:42.333Z,99.90
2019-03-12T06:36:51.879Z,99.70
2019-03-12T06:42:07.756Z,99.80
2019-03-12T06:47:23.360Z,99.70
2019-03-12T06:52:48.693Z,99.90
2019-03-12T06:58:35.502Z,99.90
2019-03-12T07:04:03.106Z,99.90
2019-03-12T07:09:30.654Z,99.90
2019-03-12T07:14:44.870Z,99.90
2019-03-12T07:20:13.443Z,99.90
2019-03-12T07:25:34.426Z,99.90
2019-03-12T07:30:57.407Z,99.90
2019-03-12T07:36:15.219Z,99.90
2019-03-12T07:41:32.728Z,99.90
2019-03-12T07:47:06.150Z,99.90
2019-03-12T07:52:37.573Z,99.90
2019-03-12T07:58:02.025Z,99.90
2019-03-12T08:03:25.462Z,99.90
2019-03-12T08:08:44.421Z,99.90
2019-03-12T08:14:09.175Z,99.90
2019-03-12T08:19:39.762Z,99.90
2019-03-12T08:24:51.471Z,99.90
2019-03-12T08:30:15.997Z,99.90
2019-03-12T08:35:55.405Z,99.90
2019-03-12T08:41:12.065Z,99.90
2019-03-12T08:46:54.873Z,99.90
2019-03-12T08:52:18.417Z,99.90
2019-03-12T08:57:52.222Z,99.90
2019-03-12T09:03:12.535Z,99.90
2019-03-12T09:08:52.407Z,99.90
2019-03-12T09:14:28.940Z,99.90
2019-03-12T09:19:52.210Z,99.90
2019-03-12T09:25:14.538Z,99.90
2019-03-12T09:30:39.679Z,99.90
2019-03-12T09:36:04.192Z,99.90
2019-03-12T09:41:28.639Z,99.90
2019-03-12T09:46:46.485Z,99.90
2019-03-12T09:51:57.292Z,99.90
2019-03-12T09:57:09.591Z,99.90
2019-03-12T10:02:26.599Z,99.90
2019-03-12T10:07:49.214Z,99.90
2019-03-12T10:13:19.748Z,99.90
2019-03-12T10:18:50.976Z,99.90
2019-03-12T10:24:06.878Z,99.90
2019-03-12T10:29:31.418Z,99.90
2019-03-12T10:35:05.281Z,99.90
2019-03-12T10:40:29.446Z,99.90
2019-03-12T10:45:52.947Z,99.90
2019-03-12T10:50:58.706Z,99.90
2019-03-12T10:56:04.617Z,99.90
2019-03-12T11:01:10.431Z,99.90
2019-03-12T11:06:15.888Z,99.90
2019-03-12T11:11:21.558Z,99.90
2019-03-12T11:16:27.322Z,99.90
2019-03-12T11:21:33.032Z,99.90
2019-03-12T11:26:38.693Z,99.90
2019-03-12T11:31:44.544Z,99.90
2019-03-12T11:36:50.288Z,99.90
2019-03-12T11:41:56.075Z,99.90
2019-03-12T11:47:02.770Z,99.90
2019-03-12T11:52:08.423Z,99.90
2019-03-12T11:57:14.053Z,99.90
2019-03-12T12:02:19.780Z,99.90
2019-03-12T12:07:25.126Z,99.90
2019-03-12T12:12:31.656Z,99.90
2019-03-12T12:17:37.270Z,99.90
2019-03-12T12:22:42.995Z,99.90
2019-03-12T12:27:48.594Z,99.90
2019-03-12T12:32:54.173Z,99.90
2019-03-12T12:37:59.924Z,99.90
2019-03-12T12:43:05.521Z,99.90
2019-03-12T12:48:11.180Z,99.90
2019-03-12T12:53:16.679Z,99.90
2019-03-12T12:58:22.364Z,99.90
2019-03-12T13:03:28.089Z,99.90
2019-03-12T13:08:33.500Z,99.90
2019-03-12T13:13:39.128Z,99.90
2019-03-12T13:18:44.712Z,99.90
2019-03-12T13:23:50.098Z,99.90
2019-03-12T13:28:55.665Z,99.90
2019-03-12T13:34:01.219Z,99.90
2019-03-12T13:39:08.262Z,99.90
2019-03-12T13:44:13.810Z,99.90
2019-03-12T13:49:19.517Z,99.90
2019-03-12T13:54:25.194Z,99.90
2019-03-12T13:59:30.857Z,99.90
2019-03-12T14:04:36.570Z,99.90
2019-03-12T14:09:42.115Z,99.90
2019-03-12T14:14:47.791Z,99.90
2019-03-12T14:19:53.393Z,99.90
2019-03-12T14:24:58.973Z,99.90
2019-03-12T14:30:04.431Z,99.90
2019-03-12T14:35:10.033Z,99.90
2019-03-12T14:40:15.695Z,99.90
2019-03-12T14:45:26.432Z,99.90
2019-03-12T14:50:32.007Z,99.90
2019-03-12T14:55:37.539Z,99.90
2019-03-12T15:00:42.991Z,99.90
2019-03-12T15:05:48.584Z,99.90
2019-03-12T15:10:54.053Z,99.90
2019-03-12T15:15:59.484Z,99.90
2019-03-12T15:21:05.389Z,99.90
2019-03-12T15:26:11.081Z,99.90
2019-03-12T15:31:16.744Z,99.90
2019-03-12T15:36:22.379Z,99.90
2019-03-12T15:41:27.959Z,99.90
2019-03-12T15:46:33.521Z,99.90
2019-03-12T15:51:39.083Z,99.90
2019-03-12T15:56:44.681Z,99.90
2019-03-12T16:01:50.392Z,99.90
2019-03-12T16:07:01.146Z,99.90
2019-03-12T16:12:03.251Z,99.90
2019-03-12T16:17:08.858Z,99.90
2019-03-12T16:22:14.655Z,99.90
2019-03-12T16:27:20.109Z,99.90
2019-03-12T16:32:25.790Z,99.90
2019-03-12T16:37:31.629Z,99.90
2019-03-12T16:42:37.512Z,99.90
2019-03-12T16:47:43.119Z,99.90
2019-03-12T16:52:48.905Z,99.90
2019-03-12T16:57:54.605Z,99.90
2019-03-12T17:03:00.093Z,99.90
2019-03-12T17:08:05.992Z,99.90
2019-03-12T17:13:11.804Z,99.90
2019-03-12T17:18:17.574Z,99.90
2019-03-12T17:23:23.014Z,99.90
2019-03-12T17:28:28.657Z,99.90
2019-03-12T17:33:34.154Z,99.80
2019-03-12T17:38:46.589Z,99.70
2019-03-12T17:43:46.920Z,99.70
2019-03-12T17:48:52.477Z,99.60
2019-03-12T17:53:58.248Z,99.70
2019-03-12T17:59:03.633Z,99.70
2019-03-12T18:04:09.400Z,99.70
2019-03-12T18:09:15.940Z,99.70
2019-03-12T18:14:21.500Z,99.70
2019-03-12T18:19:27.192Z,99.60
2019-03-12T18:24:32.535Z,99.50
2019-03-12T18:29:38.143Z,99.60
2019-03-12T18:34:43.824Z,99.70
2019-03-12T18:39:49.323Z,99.80
2019-03-12T18:44:54.944Z,99.80
2019-03-12T18:50:00.433Z,99.90
2019-03-12T18:55:06.552Z,99.90
2019-03-12T19:00:12.913Z,99.30
2019-03-12T19:05:18.498Z,99.50
2019-03-12T19:10:24.040Z,99.50
2019-03-12T19:15:29.726Z,99.50
2019-03-12T19:20:44.551Z,99.60
2019-03-12T19:25:50.056Z,99.40
2019-03-12T19:31:05.411Z,99.40
2019-03-12T19:36:10.911Z,99.30
2019-03-12T19:41:16.253Z,99.10
2019-03-12T19:46:21.970Z,98.80
2019-03-12T19:51:27.589Z,98.80
2019-03-12T19:56:32.889Z,98.90
2019-03-12T20:01:39.254Z,99.20
2019-03-12T20:07:05.027Z,99.00
2019-03-12T20:12:52.614Z,99.20
2019-03-12T20:18:42.145Z,99.20
2019-03-12T20:24:28.371Z,99.00
2019-03-12T20:30:10.387Z,98.90
2019-03-12T20:35:49.320Z,98.80
2019-03-12T20:41:49.282Z,98.70
2019-03-12T20:47:30.455Z,98.60
2019-03-12T20:53:07.600Z,98.50
2019-03-12T20:59:12.245Z,98.40
2019-03-12T21:05:09.682Z,98.30
2019-03-12T21:10:54.643Z,98.10
2019-03-12T21:16:37.024Z,97.90
2019-03-12T21:22:10.399Z,97.70
2019-03-12T21:27:46.554Z,97.60
2019-03-12T21:32:52.208Z,97.50
2019-03-12T21:37:57.535Z,97.50
2019-03-12T21:43:03.210Z,97.10
2019-03-12T21:48:08.664Z,97.20
2019-03-12T21:53:14.560Z,96.80
2019-03-12T21:58:20.091Z,97.00
2019-03-12T22:03:25.668Z,96.90
2019-03-12T22:08:31.248Z,96.70
2019-03-12T22:13:36.951Z,96.60
2019-03-12T22:18:42.487Z,96.30
2019-03-12T22:23:49.466Z,96.00
2019-03-12T22:28:55.270Z,96.10
2019-03-12T22:34:00.787Z,96.10
2019-03-12T22:39:07.194Z,95.90
2019-03-12T22:44:12.777Z,95.80
2019-03-12T22:49:18.430Z,95.60
2019-03-12T22:54:23.898Z,95.70
2019-03-12T22:59:29.250Z,95.40
2019-03-12T23:04:34.929Z,95.40
2019-03-12T23:09:40.459Z,95.10
2019-03-12T23:14:45.824Z,94.90
2019-03-12T23:19:51.307Z,94.50
2019-03-12T23:24:56.740Z,94.40
2019-03-12T23:30:02.198Z,94.30
2019-03-12T23:35:08.292Z,93.60
2019-03-12T23:40:14.949Z,94.00
2019-03-12T23:45:20.573Z,94.00
2019-03-12T23:50:27.891Z,94.10
2019-03-12T23:55:33.601Z,94.00
